Main page
METAR-TAF:

Airports :

Mexicali, Mexico

General Rodolfo Sánchez Taboada International Airport

latitude: 32-37-50N, longitude: 115-14-30W, elevation: 22 m

Current weather observation

The report was made 24 minutes ago, at 07:56 UTC
Wind 3 kt from the East
Temperature 30°C
Humidity 29%
Pressure 1012 hPa
Visibility: 16.1 km
Clear sky

METAR: MMML 240756Z 08003KT 10SM SKC 30/10 A2988

Time: 03:20 (08:20 UTC)

Forecast

The report was made 3 hours and 25 minutes ago, at 04:55 UTC
Forecast valid from 24 at 06 UTC to 25 at 06 UTC
Wind 5 kt from the South/Southeast
Visibility: 10 km
Clear sky
From 24 at 1700 UTC
Wind 10 kt from the North/Northwest
Visibility: 10 km
Clear sky
From 25 at 0200 UTC
Wind 5 kt from the South/Southeast
Visibility: 10 km
Clear sky

TAF: MMML 240455Z 2406/2506 16005KT P6SM SKC FM241700 33010KT P6SM SKC FM250200 16005KT P6SM SKC

METAR-TAF

Weather observations and forecasts of more than 4000 airports (METAR and TAF reports).

The available stations are represented by yellow and red dots on the map.

Hover mouse over dot to see the name of the station.

Then click to see weather observations and forecasts.

To change the map : click on the green buttons with a black cross to zoom in, on the green button with a dash to zoom out, or on the green arrows for adjacent maps.


METAR-TAF: